sensor_id;sensor_type;location;lat;lon;timestamp;pressure;altitude;pressure_sealevel;temperature;humidity
55044;BME280;54902;50.420;18.854;2023-02-10T00:00:17;103062.89;;;-0.86;65.65
55044;BME280;54902;50.420;18.854;2023-02-10T00:00:48;103062.91;;;-0.87;65.65
55044;BME280;54902;50.420;18.854;2023-02-10T00:01:23;103053.93;;;-0.86;65.66
55044;BME280;54902;50.420;18.854;2023-02-10T00:01:54;103045.88;;;-0.86;65.65
55044;BME280;54902;50.420;18.854;2023-02-10T00:02:25;103052.17;;;-0.87;65.67
55044;BME280;54902;50.420;18.854;2023-02-10T00:02:56;103052.17;;;-0.87;65.68
55044;BME280;54902;50.420;18.854;2023-02-10T00:03:27;103055.73;;;-0.87;65.68
55044;BME280;54902;50.420;18.854;2023-02-10T00:04:00;103058.42;;;-0.87;65.67
55044;BME280;54902;50.420;18.854;2023-02-10T00:04:31;103058.42;;;-0.87;65.68
55044;BME280;54902;50.420;18.854;2023-02-10T00:05:02;103054.84;;;-0.87;65.68
55044;BME280;54902;50.420;18.854;2023-02-10T00:05:33;103060.23;;;-0.87;65.69
55044;BME280;54902;50.420;18.854;2023-02-10T00:06:06;103053.06;;;-0.88;65.71
55044;BME280;54902;50.420;18.854;2023-02-10T00:06:37;103053.06;;;-0.88;65.75
55044;BME280;54902;50.420;18.854;2023-02-10T00:07:11;103058.42;;;-0.87;65.75
55044;BME280;54902;50.420;18.854;2023-02-10T00:07:41;103063.80;;;-0.88;65.74
55044;BME280;54902;50.420;18.854;2023-02-10T00:08:12;103061.98;;;-0.88;65.73
55044;BME280;54902;50.420;18.854;2023-02-10T00:08:47;103053.95;;;-0.88;65.74
55044;BME280;54902;50.420;18.854;2023-02-10T00:09:18;103061.11;;;-0.88;65.72
55044;BME280;54902;50.420;18.854;2023-02-10T00:09:49;103061.11;;;-0.88;65.75
55044;BME280;54902;50.420;18.854;2023-02-10T00:10:20;103064.67;;;-0.89;65.79
55044;BME280;54902;50.420;18.854;2023-02-10T00:10:51;103054.84;;;-0.93;65.81
55044;BME280;54902;50.420;18.854;2023-02-10T00:11:27;103069.16;;;-0.88;65.81
55044;BME280;54902;50.420;18.854;2023-02-10T00:12:10;103056.63;;;-0.88;65.84
55044;BME280;54902;50.420;18.854;2023-02-10T00:12:43;103063.80;;;-0.88;65.80
55044;BME280;54902;50.420;18.854;2023-02-10T00:13:14;103067.36;;;-0.88;65.82
55044;BME280;54902;50.420;18.854;2023-02-10T00:13:45;103061.11;;;-0.88;65.82
55044;BME280;54902;50.420;18.854;2023-02-10T00:14:18;103056.63;;;-0.88;65.82
55044;BME280;54902;50.420;18.854;2023-02-10T00:14:49;103061.11;;;-0.88;65.83
55044;BME280;54902;50.420;18.854;2023-02-10T00:15:20;103062.91;;;-0.87;65.85
55044;BME280;54902;50.420;18.854;2023-02-10T00:15:52;103057.53;;;-0.87;65.87
55044;BME280;54902;50.420;18.854;2023-02-10T00:16:22;103057.53;;;-0.87;65.88
55044;BME280;54902;50.420;18.854;2023-02-10T00:16:54;103062.91;;;-0.87;65.88
55044;BME280;54902;50.420;18.854;2023-02-10T00:17:25;103056.63;;;-0.88;65.90
55044;BME280;54902;50.420;18.854;2023-02-10T00:17:56;103054.84;;;-0.87;65.93
55044;BME280;54902;50.420;18.854;2023-02-10T00:18:27;103056.63;;;-0.88;65.91
55044;BME280;54902;50.420;18.854;2023-02-10T00:18:58;103060.23;;;-0.87;65.94
55044;BME280;54902;50.420;18.854;2023-02-10T00:19:30;103067.36;;;-0.88;65.92
55044;BME280;54902;50.420;18.854;2023-02-10T00:20:04;103067.36;;;-0.88;65.93
55044;BME280;54902;50.420;18.854;2023-02-10T00:20:38;103062.00;;;-0.91;66.00
55044;BME280;54902;50.420;18.854;2023-02-10T00:21:13;103058.42;;;-0.87;65.95
55044;BME280;54902;50.420;18.854;2023-02-10T00:21:44;103062.91;;;-0.87;65.96
55044;BME280;54902;50.420;18.854;2023-02-10T00:22:15;103055.73;;;-0.88;65.97
55044;BME280;54902;50.420;18.854;2023-02-10T00:22:46;103056.63;;;-0.88;65.97
55044;BME280;54902;50.420;18.854;2023-02-10T00:23:17;103057.53;;;-0.87;66.00
55044;BME280;54902;50.420;18.854;2023-02-10T00:23:48;103056.60;;;-0.86;65.96
55044;BME280;54902;50.420;18.854;2023-02-10T00:24:20;103064.66;;;-0.86;65.99
55044;BME280;54902;50.420;18.854;2023-02-10T00:24:51;103057.53;;;-0.87;66.02
55044;BME280;54902;50.420;18.854;2023-02-10T00:25:22;103053.95;;;-0.88;66.00
55044;BME280;54902;50.420;18.854;2023-02-10T00:25:53;103061.98;;;-0.86;66.01
55044;BME280;54902;50.420;18.854;2023-02-10T00:26:24;103058.42;;;-0.87;66.01
55044;BME280;54902;50.420;18.854;2023-02-10T00:26:57;103052.17;;;-0.87;66.02
55044;BME280;54902;50.420;18.854;2023-02-10T00:27:28;103047.70;;;-0.87;66.01
55044;BME280;54902;50.420;18.854;2023-02-10T00:27:58;103054.84;;;-0.87;66.04
55044;BME280;54902;50.420;18.854;2023-02-10T00:28:30;103059.30;;;-0.86;66.04
55044;BME280;54902;50.420;18.854;2023-02-10T00:29:02;103044.13;;;-0.87;66.04
55044;BME280;54902;50.420;18.854;2023-02-10T00:29:33;103046.81;;;-0.87;66.05
55044;BME280;54902;50.420;18.854;2023-02-10T00:30:04;103052.17;;;-0.87;66.05
55044;BME280;54902;50.420;18.854;2023-02-10T00:30:37;103056.60;;;-0.86;66.07
55044;BME280;54902;50.420;18.854;2023-02-10T00:31:10;103053.06;;;-0.87;66.08
55044;BME280;54902;50.420;18.854;2023-02-10T00:31:42;103045.01;;;-0.88;66.08
55044;BME280;54902;50.420;18.854;2023-02-10T00:32:14;103053.93;;;-0.86;66.09
55044;BME280;54902;50.420;18.854;2023-02-10T00:32:46;103045.90;;;-0.88;66.10
55044;BME280;54902;50.420;18.854;2023-02-10T00:33:17;103045.01;;;-0.88;66.12
55044;BME280;54902;50.420;18.854;2023-02-10T00:33:48;103046.81;;;-0.87;66.10
55044;BME280;54902;50.420;18.854;2023-02-10T00:34:19;103050.38;;;-0.88;66.08
55044;BME280;54902;50.420;18.854;2023-02-10T00:34:50;103041.45;;;-0.87;66.08
55044;BME280;54902;50.420;18.854;2023-02-10T00:35:21;103045.01;;;-0.88;66.09
55044;BME280;54902;50.420;18.854;2023-02-10T00:35:52;103049.50;;;-0.89;66.08
55044;BME280;54902;50.420;18.854;2023-02-10T00:36:23;103038.77;;;-0.87;66.11
55044;BME280;54902;50.420;18.854;2023-02-10T00:36:55;103047.70;;;-0.90;66.11
55044;BME280;54902;50.420;18.854;2023-02-10T00:37:26;103038.77;;;-0.87;66.12
55044;BME280;54902;50.420;18.854;2023-02-10T00:37:57;103053.95;;;-0.88;66.11
55044;BME280;54902;50.420;18.854;2023-02-10T00:38:27;103046.81;;;-0.87;66.11
55044;BME280;54902;50.420;18.854;2023-02-10T00:39:01;103056.63;;;-0.88;66.13
55044;BME280;54902;50.420;18.854;2023-02-10T00:39:32;103049.50;;;-0.89;66.12
55044;BME280;54902;50.420;18.854;2023-02-10T00:40:04;103050.38;;;-0.88;66.12
55044;BME280;54902;50.420;18.854;2023-02-10T00:40:35;103053.06;;;-0.88;66.15
55044;BME280;54902;50.420;18.854;2023-02-10T00:41:12;103052.19;;;-0.89;66.15
55044;BME280;54902;50.420;18.854;2023-02-10T00:41:44;103053.06;;;-0.90;66.09
55044;BME280;54902;50.420;18.854;2023-02-10T00:42:15;103053.95;;;-0.89;66.08
55044;BME280;54902;50.420;18.854;2023-02-10T00:42:46;103046.79;;;-0.90;66.08
55044;BME280;54902;50.420;18.854;2023-02-10T00:43:17;103051.27;;;-0.89;66.10
55044;BME280;54902;50.420;18.854;2023-02-10T00:43:48;103053.95;;;-0.89;66.10
55044;BME280;54902;50.420;18.854;2023-02-10T00:44:19;103061.11;;;-0.90;66.07
55044;BME280;54902;50.420;18.854;2023-02-10T00:44:50;103060.23;;;-0.89;66.09
55044;BME280;54902;50.420;18.854;2023-02-10T00:45:21;103047.70;;;-0.90;66.12
55044;BME280;54902;50.420;18.854;2023-02-10T00:45:52;103059.31;;;-0.89;66.14
55044;BME280;54902;50.420;18.854;2023-02-10T00:46:23;103063.80;;;-0.90;66.14
55044;BME280;54902;50.420;18.854;2023-02-10T00:46:54;103062.00;;;-0.91;66.14
55044;BME280;54902;50.420;18.854;2023-02-10T00:47:25;103053.95;;;-0.89;66.17
55044;BME280;54902;50.420;18.854;2023-02-10T00:47:56;103059.31;;;-0.89;66.19
55044;BME280;54902;50.420;18.854;2023-02-10T00:48:27;103060.20;;;-0.90;66.16
55044;BME280;54902;50.420;18.854;2023-02-10T00:48:58;103062.00;;;-0.91;66.18
55044;BME280;54902;50.420;18.854;2023-02-10T00:49:29;103070.03;;;-0.89;66.18
55044;BME280;54902;50.420;18.854;2023-02-10T00:50:00;103056.63;;;-0.91;66.17
55044;BME280;54902;50.420;18.854;2023-02-10T00:50:31;103063.80;;;-0.90;66.16
55044;BME280;54902;50.420;18.854;2023-02-10T00:51:02;103055.75;;;-0.91;66.17
55044;BME280;54902;50.420;18.854;2023-02-10T00:51:34;103058.44;;;-0.90;66.16
55044;BME280;54902;50.420;18.854;2023-02-10T00:52:05;103055.75;;;-0.91;66.19
55044;BME280;54902;50.420;18.854;2023-02-10T00:52:36;103058.44;;;-0.91;66.22
55044;BME280;54902;50.420;18.854;2023-02-10T00:53:08;103057.51;;;-0.90;66.23
55044;BME280;54902;50.420;18.854;2023-02-10T00:53:40;103048.59;;;-0.91;66.23
55044;BME280;54902;50.420;18.854;2023-02-10T00:54:12;103056.63;;;-0.91;66.20
55044;BME280;54902;50.420;18.854;2023-02-10T00:54:43;103055.75;;;-0.91;66.20
55044;BME280;54902;50.420;18.854;2023-02-10T00:55:14;103050.39;;;-0.91;66.21
55044;BME280;54902;50.420;18.854;2023-02-10T00:55:45;103048.59;;;-0.92;66.19
55044;BME280;54902;50.420;18.854;2023-02-10T00:56:17;103047.72;;;-0.91;66.18
55044;BME280;54902;50.420;18.854;2023-02-10T00:56:49;103055.75;;;-0.91;66.18
55044;BME280;54902;50.420;18.854;2023-02-10T00:57:20;103053.97;;;-0.92;66.16
55044;BME280;54902;50.420;18.854;2023-02-10T00:57:50;103053.97;;;-0.92;66.13
55044;BME280;54902;50.420;18.854;2023-02-10T00:58:22;103053.04;;;-0.93;66.10
55044;BME280;54902;50.420;18.854;2023-02-10T00:58:53;103061.09;;;-0.93;66.08
55044;BME280;54902;50.420;18.854;2023-02-10T00:59:24;103057.53;;;-0.93;66.11
55044;BME280;54902;50.420;18.854;2023-02-10T00:59:55;103053.97;;;-0.92;66.14
55044;BME280;54902;50.420;18.854;2023-02-10T01:00:25;103046.81;;;-0.96;66.16
55044;BME280;54902;50.420;18.854;2023-02-10T01:00:57;103046.80;;;-0.93;66.15
55044;BME280;54902;50.420;18.854;2023-02-10T01:01:28;103052.16;;;-0.93;66.16
55044;BME280;54902;50.420;18.854;2023-02-10T01:02:02;103054.84;;;-0.95;66.17
55044;BME280;54902;50.420;18.854;2023-02-10T01:02:32;103047.70;;;-0.94;66.17
55044;BME280;54902;50.420;18.854;2023-02-10T01:03:03;103055.73;;;-0.94;66.17
55044;BME280;54902;50.420;18.854;2023-02-10T01:03:34;103048.61;;;-0.95;66.16
55044;BME280;54902;50.420;18.854;2023-02-10T01:04:05;103055.73;;;-0.94;66.17
55044;BME280;54902;50.420;18.854;2023-02-10T01:04:36;103043.25;;;-0.95;66.21
55044;BME280;54902;50.420;18.854;2023-02-10T01:05:07;103045.94;;;-0.95;66.18
55044;BME280;54902;50.420;18.854;2023-02-10T01:05:38;103020.91;;;-1.12;66.19
55044;BME280;54902;50.420;18.854;2023-02-10T01:06:10;103045.01;;;-0.96;66.23
55044;BME280;54902;50.420;18.854;2023-02-10T01:06:43;103052.17;;;-0.96;66.20
55044;BME280;54902;50.420;18.854;2023-02-10T01:07:14;103051.27;;;-0.97;66.20
55044;BME280;54902;50.420;18.854;2023-02-10T01:07:45;103052.17;;;-0.96;66.20
55044;BME280;54902;50.420;18.854;2023-02-10T01:08:16;103049.50;;;-0.96;66.25
55044;BME280;54902;50.420;18.854;2023-02-10T01:08:48;103056.63;;;-0.97;66.25
55044;BME280;54902;50.420;18.854;2023-02-10T01:09:18;103055.75;;;-0.97;66.27
55044;BME280;54902;50.420;18.854;2023-02-10T01:09:49;103055.75;;;-0.97;66.30
55044;BME280;54902;50.420;18.854;2023-02-10T01:10:20;103057.55;;;-0.98;66.29
55044;BME280;54902;50.420;18.854;2023-02-10T01:11:00;103066.48;;;-0.97;66.30
55044;BME280;54902;50.420;18.854;2023-02-10T01:11:31;103062.91;;;-0.96;66.32
55044;BME280;54902;50.420;18.854;2023-02-10T01:12:02;103061.11;;;-0.97;66.29
55044;BME280;54902;50.420;18.854;2023-02-10T01:12:33;103062.91;;;-0.96;66.30
55044;BME280;54902;50.420;18.854;2023-02-10T01:13:06;103062.91;;;-0.96;66.32
55044;BME280;54902;50.420;18.854;2023-02-10T01:13:37;103055.75;;;-0.97;66.33
55044;BME280;54902;50.420;18.854;2023-02-10T01:14:09;103070.95;;;-0.96;66.33
55044;BME280;54902;50.420;18.854;2023-02-10T01:14:40;103055.75;;;-0.97;66.35
55044;BME280;54902;50.420;18.854;2023-02-10T01:15:11;103059.30;;;-0.97;66.37
55044;BME280;54902;50.420;18.854;2023-02-10T01:15:45;103064.67;;;-0.97;66.38
55044;BME280;54902;50.420;18.854;2023-02-10T01:16:16;103055.75;;;-0.97;66.40
55044;BME280;54902;50.420;18.854;2023-02-10T01:16:47;103055.75;;;-0.97;66.41
55044;BME280;54902;50.420;18.854;2023-02-10T01:17:18;103061.98;;;-0.97;66.37
55044;BME280;54902;50.420;18.854;2023-02-10T01:17:49;103058.44;;;-0.97;66.37
55044;BME280;54902;50.420;18.854;2023-02-10T01:18:20;103055.75;;;-0.97;66.38
55044;BME280;54902;50.420;18.854;2023-02-10T01:18:52;103067.36;;;-0.97;66.41
55044;BME280;54902;50.420;18.854;2023-02-10T01:19:24;103054.87;;;-0.96;66.40
55044;BME280;54902;50.420;18.854;2023-02-10T01:19:55;103062.91;;;-0.96;66.40
55044;BME280;54902;50.420;18.854;2023-02-10T01:20:26;103055.75;;;-0.97;66.41
55044;BME280;54902;50.420;18.854;2023-02-10T01:20:58;103058.44;;;-0.97;66.43
55044;BME280;54902;50.420;18.854;2023-02-10T01:21:29;103057.55;;;-0.96;66.44
55044;BME280;54902;50.420;18.854;2023-02-10T01:22:00;103056.63;;;-0.97;66.44
55044;BME280;54902;50.420;18.854;2023-02-10T01:22:32;103062.91;;;-0.96;66.44
55044;BME280;54902;50.420;18.854;2023-02-10T01:23:03;103061.98;;;-0.97;66.41
55044;BME280;54902;50.420;18.854;2023-02-10T01:23:34;103061.11;;;-0.97;66.42
55044;BME280;54902;50.420;18.854;2023-02-10T01:24:05;103066.48;;;-0.97;66.44
55044;BME280;54902;50.420;18.854;2023-02-10T01:24:37;103060.23;;;-0.98;66.43
55044;BME280;54902;50.420;18.854;2023-02-10T01:25:08;103061.98;;;-0.97;66.46
55044;BME280;54902;50.420;18.854;2023-02-10T01:25:39;103056.63;;;-0.98;66.46
55044;BME280;54902;50.420;18.854;2023-02-10T01:26:10;103054.87;;;-0.98;66.48
55044;BME280;54902;50.420;18.854;2023-02-10T01:26:41;103057.55;;;-0.96;66.44
55044;BME280;54902;50.420;18.854;2023-02-10T01:27:12;103053.95;;;-0.98;66.45
55044;BME280;54902;50.420;18.854;2023-02-10T01:27:44;103053.06;;;-0.97;66.45
55044;BME280;54902;50.420;18.854;2023-02-10T01:28:15;103052.19;;;-0.98;66.45
55044;BME280;54902;50.420;18.854;2023-02-10T01:28:45;103051.27;;;-0.98;66.43
55044;BME280;54902;50.420;18.854;2023-02-10T01:29:16;103055.75;;;-0.97;66.47
55044;BME280;54902;50.420;18.854;2023-02-10T01:29:47;103043.23;;;-0.98;66.45
55044;BME280;54902;50.420;18.854;2023-02-10T01:30:18;103045.91;;;-0.98;66.46
55044;BME280;54902;50.420;18.854;2023-02-10T01:30:49;103053.95;;;-0.98;66.45
55044;BME280;54902;50.420;18.854;2023-02-10T01:31:21;103048.59;;;-0.98;66.47
55044;BME280;54902;50.420;18.854;2023-02-10T01:31:52;103052.19;;;-0.99;66.47
55044;BME280;54902;50.420;18.854;2023-02-10T01:32:23;103044.16;;;-0.99;66.48
55044;BME280;54902;50.420;18.854;2023-02-10T01:32:54;103044.16;;;-0.99;66.48
55044;BME280;54902;50.420;18.854;2023-02-10T01:33:25;103053.08;;;-1.00;66.49
55044;BME280;54902;50.420;18.854;2023-02-10T01:33:56;103043.23;;;-1.00;66.48
55044;BME280;54902;50.420;18.854;2023-02-10T01:34:27;103043.23;;;-1.00;66.50
55044;BME280;54902;50.420;18.854;2023-02-10T01:34:58;103046.84;;;-0.99;66.51
55044;BME280;54902;50.420;18.854;2023-02-10T01:35:29;103034.30;;;-1.00;66.49
55044;BME280;54902;50.420;18.854;2023-02-10T01:36:07;103036.11;;;-0.99;66.47
55044;BME280;54902;50.420;18.854;2023-02-10T01:36:39;103034.30;;;-1.00;66.48
55044;BME280;54902;50.420;18.854;2023-02-10T01:37:10;103042.34;;;-1.00;66.47
55044;BME280;54902;50.420;18.854;2023-02-10T01:37:41;103037.88;;;-1.01;66.47
55044;BME280;54902;50.420;18.854;2023-02-10T01:38:12;103035.18;;;-1.00;66.48
55044;BME280;54902;50.420;18.854;2023-02-10T01:38:43;103039.67;;;-1.00;66.49
55044;BME280;54902;50.420;18.854;2023-02-10T01:39:16;103037.88;;;-1.01;66.47
55044;BME280;54902;50.420;18.854;2023-02-10T01:39:46;103043.23;;;-1.01;66.48
55044;BME280;54902;50.420;18.854;2023-02-10T01:40:17;103038.77;;;-1.02;66.50
55044;BME280;54902;50.420;18.854;2023-02-10T01:40:48;103043.23;;;-1.01;66.49
55044;BME280;54902;50.420;18.854;2023-02-10T01:41:22;103046.81;;;-1.02;66.51
55044;BME280;54902;50.420;18.854;2023-02-10T01:41:53;103041.45;;;-1.02;66.52
55044;BME280;54902;50.420;18.854;2023-02-10T01:42:24;103040.55;;;-1.03;66.52
55044;BME280;54902;50.420;18.854;2023-02-10T01:42:55;103039.65;;;-1.03;66.50
55044;BME280;54902;50.420;18.854;2023-02-10T01:43:26;103045.94;;;-1.03;66.49
55044;BME280;54902;50.420;18.854;2023-02-10T01:44:04;103038.77;;;-1.04;66.45
55044;BME280;54902;50.420;18.854;2023-02-10T01:46:01;103053.98;;;-1.04;66.48
55044;BME280;54902;50.420;18.854;2023-02-10T01:46:34;103057.55;;;-1.05;66.48
55044;BME280;54902;50.420;18.854;2023-02-10T01:47:06;103047.70;;;-1.05;66.49
55044;BME280;54902;50.420;18.854;2023-02-10T01:47:37;103042.34;;;-1.06;66.48
55044;BME280;54902;50.420;18.854;2023-02-10T01:48:09;103051.30;;;-1.06;66.31
55044;BME280;54902;50.420;18.854;2023-02-10T01:48:40;103057.55;;;-1.05;66.47
55044;BME280;54902;50.420;18.854;2023-02-10T01:49:14;103052.19;;;-1.05;66.48
55044;BME280;54902;50.420;18.854;2023-02-10T01:49:48;103050.38;;;-1.06;66.51
55044;BME280;54902;50.420;18.854;2023-02-10T01:50:23;103047.70;;;-1.06;66.52
55044;BME280;54902;50.420;18.854;2023-02-10T01:51:01;103059.33;;;-1.07;66.54
55044;BME280;54902;50.420;18.854;2023-02-10T01:51:41;103043.23;;;-1.07;66.55
55044;BME280;54902;50.420;18.854;2023-02-10T01:52:20;103049.50;;;-1.07;66.55
55044;BME280;54902;50.420;18.854;2023-02-10T01:52:53;103040.54;;;-1.07;66.54
55044;BME280;54902;50.420;18.854;2023-02-10T01:53:24;103030.75;;;-1.08;66.52
55044;BME280;54902;50.420;18.854;2023-02-10T01:53:56;103030.75;;;-1.08;66.52
55044;BME280;54902;50.420;18.854;2023-02-10T01:54:36;103034.30;;;-1.08;66.48
55044;BME280;54902;50.420;18.854;2023-02-10T01:55:15;103024.46;;;-1.09;66.46
55044;BME280;54902;50.420;18.854;2023-02-10T01:55:49;103028.06;;;-1.10;66.45
55044;BME280;54902;50.420;18.854;2023-02-10T01:56:22;103026.26;;;-1.09;66.44
55044;BME280;54902;50.420;18.854;2023-02-10T01:56:53;103020.91;;;-1.09;66.45
55044;BME280;54902;50.420;18.854;2023-02-10T01:57:24;103024.48;;;-1.10;66.44
55044;BME280;54902;50.420;18.854;2023-02-10T01:57:55;103020.91;;;-1.11;66.43
55044;BME280;54902;50.420;18.854;2023-02-10T01:58:29;103012.87;;;-1.12;66.38
55044;BME280;54902;50.420;18.854;2023-02-10T01:59:02;103018.23;;;-1.12;66.41
55044;BME280;54902;50.420;18.854;2023-02-10T01:59:36;103005.71;;;-1.13;66.42
55044;BME280;54902;50.420;18.854;2023-02-10T02:00:08;103021.80;;;-1.13;66.39
55044;BME280;54902;50.420;18.854;2023-02-10T02:00:40;103020.92;;;-1.14;66.40
55044;BME280;54902;50.420;18.854;2023-02-10T02:01:11;103027.16;;;-1.13;66.43
55044;BME280;54902;50.420;18.854;2023-02-10T02:01:42;103014.65;;;-1.14;66.41
55044;BME280;54902;50.420;18.854;2023-02-10T02:02:14;103017.34;;;-1.16;66.41
55044;BME280;54902;50.420;18.854;2023-02-10T02:02:46;103017.34;;;-1.16;66.41
55044;BME280;54902;50.420;18.854;2023-02-10T02:03:18;103012.85;;;-1.18;66.38
55044;BME280;54902;50.420;18.854;2023-02-10T02:03:51;103015.54;;;-1.17;66.43
55044;BME280;54902;50.420;18.854;2023-02-10T02:04:23;103022.70;;;-1.17;66.45
55044;BME280;54902;50.420;18.854;2023-02-10T02:05:01;103010.18;;;-1.18;66.45
55044;BME280;54902;50.420;18.854;2023-02-10T02:05:34;103017.34;;;-1.18;66.51
55044;BME280;54902;50.420;18.854;2023-02-10T02:06:06;103017.34;;;-1.18;66.45
55044;BME280;54902;50.420;18.854;2023-02-10T02:06:37;103016.43;;;-1.19;66.49
55044;BME280;54902;50.420;18.854;2023-02-10T02:07:09;103017.34;;;-1.18;66.48
55044;BME280;54902;50.420;18.854;2023-02-10T02:07:40;103009.30;;;-1.20;66.48
55044;BME280;54902;50.420;18.854;2023-02-10T02:08:17;103003.95;;;-1.20;66.46
55044;BME280;54902;50.420;18.854;2023-02-10T02:08:50;103018.23;;;-1.21;66.49
55044;BME280;54902;50.420;18.854;2023-02-10T02:09:21;103018.23;;;-1.21;66.50
55044;BME280;54902;50.420;18.854;2023-02-10T02:09:52;103007.52;;;-1.21;66.49
55044;BME280;54902;50.420;18.854;2023-02-10T02:10:38;103013.76;;;-1.22;66.50
55044;BME280;54902;50.420;18.854;2023-02-10T02:11:18;103006.59;;;-1.21;66.51
55044;BME280;54902;50.420;18.854;2023-02-10T02:13:26;103015.56;;;-1.24;66.49
55044;BME280;54902;50.420;18.854;2023-02-10T02:14:47;103005.73;;;-1.25;66.49
55044;BME280;54902;50.420;18.854;2023-02-10T02:16:57;103004.82;;;-1.27;66.51
55044;BME280;54902;50.420;18.854;2023-02-10T02:19:16;103002.15;;;-1.27;66.51
55044;BME280;54902;50.420;18.854;2023-02-10T02:22:56;102998.56;;;-1.32;66.51
55044;BME280;54902;50.420;18.854;2023-02-10T02:24:21;103008.40;;;-1.32;66.52
55044;BME280;54902;50.420;18.854;2023-02-10T02:26:33;103003.05;;;-1.34;66.54
55044;BME280;54902;50.420;18.854;2023-02-10T02:27:14;103009.29;;;-1.35;66.55
55044;BME280;54902;50.420;18.854;2023-02-10T02:32:53;103005.73;;;-1.38;66.54
55044;BME280;54902;50.420;18.854;2023-02-10T02:33:33;103002.15;;;-1.39;66.51
55044;BME280;54902;50.420;18.854;2023-02-10T02:34:17;102996.79;;;-1.39;66.52
55044;BME280;54902;50.420;18.854;2023-02-10T02:35:40;102998.59;;;-1.41;66.53
55044;BME280;54902;50.420;18.854;2023-02-10T02:36:21;102998.59;;;-1.41;66.50
55044;BME280;54902;50.420;18.854;2023-02-10T02:37:41;102999.48;;;-1.42;66.52
55044;BME280;54902;50.420;18.854;2023-02-10T02:38:12;102984.28;;;-1.43;66.51
55044;BME280;54902;50.420;18.854;2023-02-10T02:38:44;103000.37;;;-1.43;66.51
55044;BME280;54902;50.420;18.854;2023-02-10T02:39:14;103004.84;;;-1.43;66.52
55044;BME280;54902;50.420;18.854;2023-02-10T02:39:49;102995.88;;;-1.44;66.52
55044;BME280;54902;50.420;18.854;2023-02-10T02:40:21;103002.17;;;-1.45;66.55
55044;BME280;54902;50.420;18.854;2023-02-10T02:40:52;102999.48;;;-1.45;66.55
55044;BME280;54902;50.420;18.854;2023-02-10T02:41:26;102991.45;;;-1.45;66.54
55044;BME280;54902;50.420;18.854;2023-02-10T02:42:41;103001.26;;;-1.45;66.54
55044;BME280;54902;50.420;18.854;2023-02-10T02:43:13;102991.42;;;-1.46;66.53
55044;BME280;54902;50.420;18.854;2023-02-10T02:43:44;102999.46;;;-1.46;66.52
55044;BME280;54902;50.420;18.854;2023-02-10T02:44:14;103000.37;;;-1.46;66.53
55044;BME280;54902;50.420;18.854;2023-02-10T02:44:48;103003.06;;;-1.47;66.52
55044;BME280;54902;50.420;18.854;2023-02-10T02:45:29;103001.26;;;-1.47;66.53
55044;BME280;54902;50.420;18.854;2023-02-10T02:46:11;102996.79;;;-1.48;66.54
55044;BME280;54902;50.420;18.854;2023-02-10T02:46:53;103001.27;;;-1.48;66.54
55044;BME280;54902;50.420;18.854;2023-02-10T02:49:42;102995.91;;;-1.50;66.53
55044;BME280;54902;50.420;18.854;2023-02-10T02:51:49;102994.99;;;-1.52;66.58
55044;BME280;54902;50.420;18.854;2023-02-10T02:55:01;102996.79;;;-1.52;66.64
55044;BME280;54902;50.420;18.854;2023-02-10T02:55:31;102995.01;;;-1.53;66.65
55044;BME280;54902;50.420;18.854;2023-02-10T02:56:49;102995.88;;;-1.53;66.66
55044;BME280;54902;50.420;18.854;2023-02-10T02:57:39;102994.13;;;-1.54;66.67
55044;BME280;54902;50.420;18.854;2023-02-10T02:58:18;102994.13;;;-1.54;66.65
55044;BME280;54902;50.420;18.854;2023-02-10T02:59:18;102994.13;;;-1.54;66.66
55044;BME280;54902;50.420;18.854;2023-02-10T02:59:41;102981.62;;;-1.55;66.66
55044;BME280;54902;50.420;18.854;2023-02-10T03:00:18;102988.77;;;-1.55;66.65
55044;BME280;54902;50.420;18.854;2023-02-10T03:00:53;102992.32;;;-1.55;66.68
55044;BME280;54902;50.420;18.854;2023-02-10T03:01:35;102994.13;;;-1.55;66.66
55044;BME280;54902;50.420;18.854;2023-02-10T03:02:11;102982.49;;;-1.56;66.67
55044;BME280;54902;50.420;18.854;2023-02-10T03:02:44;102993.21;;;-1.56;66.68
55044;BME280;54902;50.420;18.854;2023-02-10T03:03:16;102989.66;;;-1.56;66.67
55044;BME280;54902;50.420;18.854;2023-02-10T03:03:47;102995.01;;;-1.56;66.67
55044;BME280;54902;50.420;18.854;2023-02-10T03:04:18;102993.21;;;-1.56;66.69
55044;BME280;54902;50.420;18.854;2023-02-10T03:04:50;102992.34;;;-1.56;66.69
55044;BME280;54902;50.420;18.854;2023-02-10T03:05:23;102996.77;;;-1.57;66.71
55044;BME280;54902;50.420;18.854;2023-02-10T03:06:00;102996.77;;;-1.57;66.70
55044;BME280;54902;50.420;18.854;2023-02-10T03:06:34;102995.01;;;-1.58;66.73
55044;BME280;54902;50.420;18.854;2023-02-10T03:07:05;102997.70;;;-1.58;66.71
55044;BME280;54902;50.420;18.854;2023-02-10T03:07:36;102996.78;;;-1.58;66.70
55044;BME280;54902;50.420;18.854;2023-02-10T03:08:07;102999.46;;;-1.58;66.70
55044;BME280;54902;50.420;18.854;2023-02-10T03:08:40;102999.46;;;-1.58;66.74
55044;BME280;54902;50.420;18.854;2023-02-10T03:09:12;102998.57;;;-1.59;66.72
55044;BME280;54902;50.420;18.854;2023-02-10T03:09:44;103009.29;;;-1.57;66.70
55044;BME280;54902;50.420;18.854;2023-02-10T03:10:15;103003.93;;;-1.59;66.72
55044;BME280;54902;50.420;18.854;2023-02-10T03:10:46;103001.26;;;-1.59;66.70
55044;BME280;54902;50.420;18.854;2023-02-10T03:11:18;103005.73;;;-1.58;66.71
55044;BME280;54902;50.420;18.854;2023-02-10T03:11:49;103003.93;;;-1.59;66.70
55044;BME280;54902;50.420;18.854;2023-02-10T03:12:19;103008.42;;;-1.59;66.72
55044;BME280;54902;50.420;18.854;2023-02-10T03:12:50;102999.46;;;-1.58;66.74
55044;BME280;54902;50.420;18.854;2023-02-10T03:13:22;103006.62;;;-1.59;66.74
55044;BME280;54902;50.420;18.854;2023-02-10T03:13:53;103006.62;;;-1.59;66.75
55044;BME280;54902;50.420;18.854;2023-02-10T03:14:24;103009.29;;;-1.59;66.78
55044;BME280;54902;50.420;18.854;2023-02-10T03:14:55;103002.15;;;-1.60;66.77